RYR8128 EICK-LIRP
Flight info
| Callsign | RYR8128 |
|---|---|
| Flight time | N/A |
| Altitude | 35000 |
| Route | ERTER1N ERTER DCT LEDGO DCT DOLUR DCT NOKVI DCT ANG DCT PEPAX DCT TIS DCT RONOP DCT TOP/N0348F190 L50 KONER |
| Aircraft | B738/M-SDE2E3FGHIRWXY/LB1 |
Departure
| Time | N/A |
|---|---|
| Airport | Cork International Airport (EICK) |
Arrival
| Time | 2026-05-04 12:52 |
|---|---|
| Airport | Pisa International Airport (LIRP) |
| Time | Latitude | Longitude | Altitude | Speed | Heading |
|---|---|---|---|---|---|
| 2026-05-04 11:36 | 47.09250 | 0.42142 | 36949 ft | 438 kts | 122° |
| 2026-05-04 11:36 | 47.06425 | 0.49981 | 36949 ft | 436 kts | 122° |
| 2026-05-04 11:37 | 47.03554 | 0.57802 | 36951 ft | 436 kts | 122° |
| 2026-05-04 11:37 | 47.00667 | 0.65633 | 36955 ft | 437 kts | 122° |
| 2026-05-04 11:38 | 46.97780 | 0.73456 | 36945 ft | 438 kts | 122° |
| 2026-05-04 11:38 | 46.94872 | 0.81323 | 36951 ft | 439 kts | 122° |
| 2026-05-04 11:39 | 46.91949 | 0.89212 | 36949 ft | 441 kts | 123° |
| 2026-05-04 11:41 | 46.81660 | 1.16799 | 36940 ft | 443 kts | 123° |
| 2026-05-04 11:41 | 46.78693 | 1.24700 | 36946 ft | 443 kts | 123° |
| 2026-05-04 11:42 | 46.75721 | 1.32594 | 36950 ft | 443 kts | 123° |
| 2026-05-04 11:42 | 46.72755 | 1.40448 | 36953 ft | 442 kts | 123° |
| 2026-05-04 11:43 | 46.69775 | 1.48314 | 36959 ft | 442 kts | 123° |
| 2026-05-04 11:43 | 46.66820 | 1.56093 | 36959 ft | 441 kts | 123° |
| 2026-05-04 11:44 | 46.63840 | 1.63916 | 36955 ft | 441 kts | 123° |
| 2026-05-04 11:44 | 46.60863 | 1.71708 | 36954 ft | 440 kts | 124° |
| 2026-05-04 11:45 | 46.57881 | 1.79488 | 36959 ft | 440 kts | 124° |
| 2026-05-04 11:45 | 46.54896 | 1.87257 | 36948 ft | 440 kts | 124° |
| 2026-05-04 11:46 | 46.51920 | 1.94978 | 36944 ft | 440 kts | 124° |
| 2026-05-04 11:46 | 46.48927 | 2.02722 | 36951 ft | 440 kts | 124° |
| 2026-05-04 11:47 | 46.45925 | 2.10468 | 36950 ft | 440 kts | 124° |
| 2026-05-04 11:47 | 46.42916 | 2.18210 | 36953 ft | 440 kts | 124° |
| 2026-05-04 11:48 | 46.39899 | 2.25950 | 36957 ft | 441 kts | 124° |
| 2026-05-04 11:48 | 46.36873 | 2.33690 | 36955 ft | 442 kts | 124° |
| 2026-05-04 11:49 | 46.33862 | 2.41371 | 36954 ft | 442 kts | 124° |
| 2026-05-04 11:49 | 46.30819 | 2.49113 | 36963 ft | 442 kts | 124° |
| 2026-05-04 11:50 | 46.27771 | 2.56846 | 36953 ft | 443 kts | 125° |
| 2026-05-04 11:50 | 46.24716 | 2.64573 | 36963 ft | 443 kts | 125° |
| 2026-05-04 11:51 | 46.21657 | 2.72290 | 36970 ft | 443 kts | 125° |
| 2026-05-04 11:51 | 46.18581 | 2.80026 | 36960 ft | 443 kts | 125° |
| 2026-05-04 11:52 | 46.15505 | 2.87742 | 36970 ft | 443 kts | 125° |
| 2026-05-04 11:52 | 46.12427 | 2.95444 | 36962 ft | 443 kts | 125° |
| 2026-05-04 11:53 | 46.09354 | 3.03110 | 36954 ft | 441 kts | 125° |
| 2026-05-04 11:53 | 46.06301 | 3.10704 | 36965 ft | 440 kts | 126° |
| 2026-05-04 11:55 | 45.93994 | 3.41111 | 36967 ft | 439 kts | 126° |
| 2026-05-04 11:56 | 45.90910 | 3.48683 | 36989 ft | 439 kts | 126° |
| 2026-05-04 11:56 | 45.88020 | 3.56435 | 36971 ft | 446 kts | 116° |
| 2026-05-04 11:57 | 45.86344 | 3.65107 | 36978 ft | 452 kts | 109° |
| 2026-05-04 11:57 | 45.84863 | 3.73861 | 36996 ft | 452 kts | 109° |
| 2026-05-04 11:58 | 45.83359 | 3.82574 | 36983 ft | 453 kts | 109° |
| 2026-05-04 11:58 | 45.81809 | 3.91338 | 36997 ft | 453 kts | 110° |
| 2026-05-04 11:59 | 45.80242 | 4.00095 | 36989 ft | 453 kts | 110° |
| 2026-05-04 11:59 | 45.78668 | 4.08833 | 37009 ft | 453 kts | 110° |
| 2026-05-04 12:00 | 45.77086 | 4.17573 | 37021 ft | 454 kts | 110° |
| 2026-05-04 12:00 | 45.75492 | 4.26337 | 37009 ft | 454 kts | 110° |
| 2026-05-04 12:01 | 45.73902 | 4.35042 | 37014 ft | 455 kts | 110° |
| 2026-05-04 12:02 | 45.68241 | 4.65711 | 37035 ft | 456 kts | 110° |
| 2026-05-04 12:03 | 45.66606 | 4.74475 | 37046 ft | 456 kts | 110° |
| 2026-05-04 12:03 | 45.65242 | 4.81753 | 37049 ft | 456 kts | 110° |
| 2026-05-04 12:04 | 45.63323 | 4.91947 | 37045 ft | 457 kts | 110° |
| 2026-05-04 12:04 | 45.61667 | 5.00702 | 37040 ft | 457 kts | 110° |
| 2026-05-04 12:05 | 45.60287 | 5.07969 | 37045 ft | 456 kts | 110° |
| 2026-05-04 12:05 | 45.58616 | 5.16728 | 37050 ft | 457 kts | 111° |
| 2026-05-04 12:06 | 45.56939 | 5.25475 | 37037 ft | 457 kts | 110° |
| 2026-05-04 12:06 | 45.55250 | 5.34246 | 37041 ft | 457 kts | 110° |
| 2026-05-04 12:07 | 45.53557 | 5.43001 | 37045 ft | 458 kts | 110° |
| 2026-05-04 12:07 | 45.51853 | 5.51769 | 37036 ft | 458 kts | 110° |
| 2026-05-04 12:08 | 45.50147 | 5.60515 | 37041 ft | 458 kts | 110° |
| 2026-05-04 12:08 | 45.48434 | 5.69251 | 37060 ft | 458 kts | 110° |
| 2026-05-04 12:09 | 45.46726 | 5.77919 | 37071 ft | 458 kts | 110° |
| 2026-05-04 12:09 | 45.44994 | 5.86672 | 37055 ft | 459 kts | 110° |
| 2026-05-04 12:10 | 45.43256 | 5.95417 | 37041 ft | 459 kts | 111° |
| 2026-05-04 12:10 | 45.41516 | 6.04139 | 37057 ft | 459 kts | 111° |
| 2026-05-04 12:11 | 45.39759 | 6.12901 | 37051 ft | 461 kts | 110° |
| 2026-05-04 12:11 | 45.37999 | 6.21647 | 37075 ft | 459 kts | 110° |
| 2026-05-04 12:12 | 45.36240 | 6.30343 | 37066 ft | 460 kts | 110° |
| 2026-05-04 12:12 | 45.34465 | 6.39083 | 37091 ft | 460 kts | 110° |
| 2026-05-04 12:14 | 45.27269 | 6.74124 | 37132 ft | 461 kts | 111° |
| 2026-05-04 12:15 | 45.25454 | 6.82864 | 37147 ft | 461 kts | 111° |
| 2026-05-04 12:15 | 45.23640 | 6.91563 | 37140 ft | 464 kts | 111° |
| 2026-05-04 12:16 | 45.21806 | 7.00330 | 37147 ft | 463 kts | 111° |
| 2026-05-04 12:16 | 45.19963 | 7.09099 | 37141 ft | 464 kts | 111° |
| 2026-05-04 12:17 | 45.17913 | 7.17745 | 37113 ft | 459 kts | 121° |
| 2026-05-04 12:17 | 45.14970 | 7.25761 | 37121 ft | 458 kts | 123° |
| 2026-05-04 12:18 | 45.11978 | 7.33742 | 37128 ft | 459 kts | 122° |
| 2026-05-04 12:18 | 45.09032 | 7.41694 | 37123 ft | 459 kts | 122° |
| 2026-05-04 12:19 | 45.06076 | 7.49713 | 37128 ft | 460 kts | 122° |
| 2026-05-04 12:19 | 45.03112 | 7.57739 | 37138 ft | 461 kts | 122° |
| 2026-05-04 12:20 | 45.00141 | 7.65761 | 37120 ft | 461 kts | 122° |
| 2026-05-04 12:20 | 44.97163 | 7.73778 | 37128 ft | 459 kts | 122° |
| 2026-05-04 12:21 | 44.94183 | 7.81767 | 37125 ft | 460 kts | 123° |
| 2026-05-04 12:21 | 44.90390 | 7.88910 | 37112 ft | 450 kts | 142° |
| 2026-05-04 12:22 | 44.85638 | 7.94625 | 37115 ft | 451 kts | 145° |
| 2026-05-04 12:22 | 44.80822 | 8.00324 | 37101 ft | 452 kts | 144° |
| 2026-05-04 12:23 | 44.76074 | 8.06021 | 37089 ft | 449 kts | 144° |
| 2026-05-04 12:23 | 44.71340 | 8.11715 | 37093 ft | 447 kts | 144° |
| 2026-05-04 12:24 | 44.66620 | 8.17372 | 37104 ft | 445 kts | 144° |
| 2026-05-04 12:24 | 44.61909 | 8.23015 | 37097 ft | 445 kts | 144° |
| 2026-05-04 12:25 | 44.57184 | 8.28664 | 37108 ft | 448 kts | 144° |
| 2026-05-04 12:25 | 44.52404 | 8.34363 | 37119 ft | 454 kts | 144° |
| 2026-05-04 12:26 | 44.47601 | 8.40083 | 37125 ft | 457 kts | 144° |
| 2026-05-04 12:26 | 44.42767 | 8.45832 | 37127 ft | 453 kts | 144° |
| 2026-05-04 12:27 | 44.40363 | 8.48683 | 36737 ft | 454 kts | 144° |
| 2026-05-04 12:27 | 44.37967 | 8.51520 | 36286 ft | 450 kts | 144° |
| 2026-05-04 12:27 | 44.35580 | 8.54341 | 35723 ft | 450 kts | 144° |
| 2026-05-04 12:27 | 44.33186 | 8.57166 | 35139 ft | 451 kts | 144° |
| 2026-05-04 12:28 | 44.30783 | 8.59998 | 34551 ft | 451 kts | 144° |
| 2026-05-04 12:28 | 44.28550 | 8.62628 | 33972 ft | 452 kts | 144° |
| 2026-05-04 12:28 | 44.26141 | 8.65464 | 33270 ft | 453 kts | 144° |
| 2026-05-04 12:28 | 44.23735 | 8.68297 | 32599 ft | 453 kts | 144° |
| 2026-05-04 12:29 | 44.21317 | 8.71137 | 31920 ft | 454 kts | 143° |
| 2026-05-04 12:29 | 44.18903 | 8.73971 | 31315 ft | 453 kts | 143° |
| 2026-05-04 12:29 | 44.16504 | 8.76794 | 30701 ft | 452 kts | 143° |
| 2026-05-04 12:29 | 44.14102 | 8.79617 | 29979 ft | 453 kts | 143° |
| 2026-05-04 12:30 | 44.11687 | 8.82447 | 29189 ft | 452 kts | 143° |
| 2026-05-04 12:30 | 44.09279 | 8.85257 | 28410 ft | 452 kts | 143° |
| 2026-05-04 12:30 | 44.06883 | 8.88048 | 27813 ft | 447 kts | 143° |
| 2026-05-04 12:30 | 44.04501 | 8.90820 | 27213 ft | 443 kts | 143° |
| 2026-05-04 12:31 | 44.02150 | 8.93555 | 26648 ft | 439 kts | 143° |
| 2026-05-04 12:31 | 43.99817 | 8.96266 | 26084 ft | 435 kts | 143° |
| 2026-05-04 12:31 | 43.97532 | 8.98920 | 25536 ft | 431 kts | 143° |
| 2026-05-04 12:31 | 43.95237 | 9.01580 | 24991 ft | 428 kts | 143° |
| 2026-05-04 12:32 | 43.92963 | 9.04214 | 24465 ft | 424 kts | 143° |
| 2026-05-04 12:32 | 43.88462 | 9.09423 | 23356 ft | 417 kts | 143° |
| 2026-05-04 12:32 | 43.86243 | 9.11989 | 22755 ft | 414 kts | 143° |
| 2026-05-04 12:33 | 43.84041 | 9.14533 | 22181 ft | 410 kts | 143° |
| 2026-05-04 12:33 | 43.81861 | 9.17049 | 21645 ft | 406 kts | 143° |
| 2026-05-04 12:33 | 43.79694 | 9.19546 | 21095 ft | 403 kts | 143° |
| 2026-05-04 12:33 | 43.77548 | 9.22016 | 20566 ft | 399 kts | 143° |
| 2026-05-04 12:34 | 43.75422 | 9.24462 | 20043 ft | 396 kts | 143° |
| 2026-05-04 12:34 | 43.73501 | 9.26669 | 19567 ft | 393 kts | 143° |
| 2026-05-04 12:34 | 43.71401 | 9.29080 | 19049 ft | 391 kts | 143° |
| 2026-05-04 12:34 | 43.69318 | 9.31471 | 18529 ft | 389 kts | 143° |
| 2026-05-04 12:35 | 43.67244 | 9.33848 | 17939 ft | 387 kts | 143° |
| 2026-05-04 12:35 | 43.65177 | 9.36216 | 17377 ft | 384 kts | 143° |
| 2026-05-04 12:35 | 43.63130 | 9.38559 | 16848 ft | 380 kts | 143° |
| 2026-05-04 12:35 | 43.61097 | 9.40883 | 16330 ft | 377 kts | 143° |
| 2026-05-04 12:36 | 43.59102 | 9.43163 | 15748 ft | 376 kts | 143° |
| 2026-05-04 12:36 | 43.57091 | 9.45458 | 15226 ft | 373 kts | 143° |
| 2026-05-04 12:36 | 43.55099 | 9.47731 | 14711 ft | 370 kts | 143° |
| 2026-05-04 12:36 | 43.53181 | 9.50096 | 14189 ft | 371 kts | 133° |
| 2026-05-04 12:37 | 43.51905 | 9.53131 | 13667 ft | 374 kts | 111° |
| 2026-05-04 12:37 | 43.51515 | 9.56638 | 13380 ft | 366 kts | 91° |
| 2026-05-04 12:37 | 43.51898 | 9.60007 | 13223 ft | 347 kts | 76° |
| 2026-05-04 12:37 | 43.52589 | 9.63096 | 13052 ft | 329 kts | 74° |
| 2026-05-04 12:38 | 43.53270 | 9.66095 | 12736 ft | 325 kts | 75° |
| 2026-05-04 12:38 | 43.53917 | 9.69023 | 12413 ft | 314 kts | 76° |
| 2026-05-04 12:38 | 43.54537 | 9.71882 | 12053 ft | 308 kts | 76° |
| 2026-05-04 12:38 | 43.55138 | 9.74680 | 11678 ft | 301 kts | 76° |
| 2026-05-04 12:39 | 43.55723 | 9.77418 | 11304 ft | 294 kts | 77° |
| 2026-05-04 12:39 | 43.56294 | 9.80097 | 10912 ft | 289 kts | 77° |
| 2026-05-04 12:39 | 43.56858 | 9.82744 | 10599 ft | 286 kts | 77° |
| 2026-05-04 12:39 | 43.57416 | 9.85363 | 10368 ft | 283 kts | 77° |
| 2026-05-04 12:40 | 43.57965 | 9.87945 | 10123 ft | 277 kts | 77° |
| 2026-05-04 12:40 | 43.58500 | 9.90460 | 9844 ft | 269 kts | 77° |
| 2026-05-04 12:40 | 43.59019 | 9.92904 | 9524 ft | 262 kts | 77° |
| 2026-05-04 12:40 | 43.59555 | 9.95269 | 9197 ft | 258 kts | 69° |
| 2026-05-04 12:41 | 43.60672 | 9.97199 | 8876 ft | 260 kts | 41° |
| 2026-05-04 12:41 | 43.62112 | 9.98681 | 8592 ft | 259 kts | 39° |
| 2026-05-04 12:41 | 43.63560 | 10.00143 | 8318 ft | 263 kts | 39° |
| 2026-05-04 12:41 | 43.65044 | 10.01649 | 8039 ft | 265 kts | 39° |
| 2026-05-04 12:42 | 43.66526 | 10.03156 | 7788 ft | 263 kts | 39° |
| 2026-05-04 12:42 | 43.67996 | 10.04655 | 7536 ft | 262 kts | 39° |
| 2026-05-04 12:42 | 43.69453 | 10.06144 | 7295 ft | 260 kts | 39° |
| 2026-05-04 12:42 | 43.70846 | 10.07709 | 7037 ft | 256 kts | 52° |
| 2026-05-04 12:43 | 43.71614 | 10.09849 | 6813 ft | 245 kts | 84° |
| 2026-05-04 12:43 | 43.71521 | 10.12128 | 6629 ft | 235 kts | 109° |
| 2026-05-04 12:43 | 43.70836 | 10.14134 | 6423 ft | 228 kts | 125° |
| 2026-05-04 12:43 | 43.69918 | 10.15901 | 6213 ft | 225 kts | 128° |
| 2026-05-04 12:44 | 43.68980 | 10.17607 | 6006 ft | 222 kts | 130° |
| 2026-05-04 12:44 | 43.67803 | 10.18929 | 5778 ft | 219 kts | 158° |
| 2026-05-04 12:44 | 43.66323 | 10.19251 | 5586 ft | 217 kts | 184° |
| 2026-05-04 12:44 | 43.64896 | 10.18601 | 5380 ft | 217 kts | 207° |
| 2026-05-04 12:45 | 43.63640 | 10.17427 | 5169 ft | 219 kts | 213° |
| 2026-05-04 12:45 | 43.62430 | 10.16177 | 4927 ft | 221 kts | 213° |
| 2026-05-04 12:45 | 43.61197 | 10.14899 | 4670 ft | 222 kts | 213° |
| 2026-05-04 12:45 | 43.59961 | 10.13616 | 4419 ft | 222 kts | 213° |
| 2026-05-04 12:46 | 43.58721 | 10.12336 | 4159 ft | 222 kts | 213° |
| 2026-05-04 12:46 | 43.57412 | 10.11256 | 3877 ft | 218 kts | 191° |
| 2026-05-04 12:46 | 43.55968 | 10.11433 | 3642 ft | 210 kts | 154° |
| 2026-05-04 12:46 | 43.54826 | 10.12648 | 3407 ft | 209 kts | 129° |
| 2026-05-04 12:47 | 43.54205 | 10.14455 | 3164 ft | 211 kts | 103° |
| 2026-05-04 12:47 | 43.54123 | 10.16467 | 2967 ft | 211 kts | 92° |
| 2026-05-04 12:47 | 43.54195 | 10.18456 | 2797 ft | 204 kts | 91° |
| 2026-05-04 12:47 | 43.54277 | 10.20370 | 2648 ft | 197 kts | 91° |
| 2026-05-04 12:48 | 43.54353 | 10.22223 | 2533 ft | 191 kts | 91° |
| 2026-05-04 12:48 | 43.54490 | 10.24019 | 2479 ft | 192 kts | 76° |
| 2026-05-04 12:48 | 43.55279 | 10.25464 | 2514 ft | 189 kts | 45° |
| 2026-05-04 12:48 | 43.56241 | 10.26670 | 2500 ft | 187 kts | 47° |
| 2026-05-04 12:49 | 43.57227 | 10.27842 | 2468 ft | 187 kts | 43° |
| 2026-05-04 12:49 | 43.58265 | 10.28952 | 2261 ft | 189 kts | 40° |
| 2026-05-04 12:49 | 43.59315 | 10.30042 | 2062 ft | 189 kts | 41° |
| 2026-05-04 12:49 | 43.60377 | 10.31143 | 1774 ft | 189 kts | 40° |
| 2026-05-04 12:50 | 43.61428 | 10.32238 | 1486 ft | 190 kts | 39° |
| 2026-05-04 12:50 | 43.62473 | 10.33311 | 1276 ft | 185 kts | 41° |
| 2026-05-04 12:50 | 43.63490 | 10.34359 | 1031 ft | 177 kts | 39° |
| 2026-05-04 12:50 | 43.64433 | 10.35348 | 865 ft | 163 kts | 40° |
| 2026-05-04 12:51 | 43.65337 | 10.36300 | 569 ft | 163 kts | 37° |
| 2026-05-04 12:51 | 43.66234 | 10.37211 | 301 ft | 157 kts | 37° |
| 2026-05-04 12:51 | 43.67090 | 10.38096 | 97 ft | 154 kts | 38° |
| 2026-05-04 12:51 | 43.67902 | 10.38932 | 19 ft | 138 kts | 38° |
| 2026-05-04 12:52 | 43.68567 | 10.39622 | 17 ft | 98 kts | 36° |
| 2026-05-04 12:52 | 43.68991 | 10.40059 | 18 ft | 58 kts | 37° |
| 2026-05-04 12:52 | 43.69211 | 10.40280 | 19 ft | 23 kts | 33° |
| 2026-05-04 12:52 | 43.69282 | 10.40284 | 19 ft | 3 kts | 325° |
| 2026-05-04 12:53 | 43.69295 | 10.40266 | 18 ft | 5 kts | 311° |
| 2026-05-04 12:53 | 43.69327 | 10.40207 | 18 ft | 15 kts | 306° |
| 2026-05-04 12:53 | 43.69396 | 10.40111 | 21 ft | 11 kts | 336° |
| 2026-05-04 12:53 | 43.69514 | 10.40080 | 15 ft | 15 kts | 353° |
| 2026-05-04 12:54 | 43.69614 | 10.40059 | 14 ft | 13 kts | 350° |
| 2026-05-04 12:54 | 43.69674 | 10.40070 | 16 ft | 13 kts | 14° |
| 2026-05-04 12:54 | 43.69737 | 10.40088 | 14 ft | 6 kts | 14° |
| 2026-05-04 12:54 | 43.69759 | 10.40093 | 14 ft | 0 kts | 8° |